Time;durP1;ratioP1;P1;durP2;ratioP2;P2;SDS_P1;SDS_P2;PMS_P1;PMS_P2;Temp;Humidity;BMP_temperature;BMP_pressure;BME280_temperature;BME280_humidity;BME280_pressure;Samples;Min_cycle;Max_cycle;Signal;HPM_P1;HPM_P2
2021/08/04 00:02:19;;;;;;;5.83;2.30;;;;;;;;;;4933546;29;20805;-83
2021/08/04 00:04:44;;;;;;;4.80;1.90;;;;;;;;;;4937273;29;20251;-83
2021/08/04 00:07:10;;;;;;;2.33;2.10;;;;;;;;;;4941430;29;20071;-83
2021/08/04 00:09:35;;;;;;;2.97;2.33;;;;;;;;;;4937498;29;20264;-83
2021/08/04 00:12:01;;;;;;;4.10;1.85;;;;;;;;;;4944024;29;20291;-83
2021/08/04 00:14:26;;;;;;;3.08;1.80;;;;;;;;;;4932555;29;20016;-83
2021/08/04 00:16:52;;;;;;;3.38;1.83;;;;;;;;;;4934828;29;20102;-84
2021/08/04 00:19:17;;;;;;;3.15;1.90;;;;;;;;;;4940494;29;20020;-83
2021/08/04 00:21:43;;;;;;;6.00;2.35;;;;;;;;;;4941277;29;20478;-83
2021/08/04 00:24:08;;;;;;;3.25;1.77;;;;;;;;;;4932195;29;20046;-83
2021/08/04 00:26:34;;;;;;;2.78;2.17;;;;;;;;;;4936103;29;20027;-83
2021/08/04 00:28:59;;;;;;;7.43;3.63;;;;;;;;;;4941460;29;20023;-83
2021/08/04 00:31:24;;;;;;;6.20;2.07;;;;;;;;;;4932101;29;20378;-83
2021/08/04 00:33:49;;;;;;;3.20;2.10;;;;;;;;;;4939246;28;20286;-83
2021/08/04 00:36:15;;;;;;;5.43;2.40;;;;;;;;;;4936160;29;20378;-83
2021/08/04 00:38:40;;;;;;;3.40;2.05;;;;;;;;;;4952329;29;20043;-83
2021/08/04 00:41:06;;;;;;;4.75;2.17;;;;;;;;;;4941627;28;20020;-83
2021/08/04 00:43:31;;;;;;;6.50;2.33;;;;;;;;;;4942351;29;20019;-83
2021/08/04 00:45:56;;;;;;;8.68;2.97;;;;;;;;;;4935804;29;20030;-83
2021/08/04 00:48:22;;;;;;;4.10;2.13;;;;;;;;;;4938092;29;20136;-83
2021/08/04 00:50:47;;;;;;;6.20;2.33;;;;;;;;;;4944362;29;20295;-83
2021/08/04 00:53:23;;;;;;;6.30;2.35;;;;;;;;;;4938206;29;20019;-83
2021/08/04 00:55:49;;;;;;;2.78;1.90;;;;;;;;;;4936732;29;20071;-84
2021/08/04 00:58:15;;;;;;;3.72;2.33;;;;;;;;;;4938862;28;20419;-83
2021/08/04 01:00:42;;;;;;;1.80;1.55;;;;;;;;;;4945823;29;20023;-84
2021/08/04 01:03:09;;;;;;;6.80;2.58;;;;;;;;;;4939436;29;20704;-83
2021/08/04 01:05:49;;;;;;;5.22;2.17;;;;;;;;;;4945297;28;20039;-83
2021/08/04 01:08:19;;;;;;;5.22;2.50;;;;;;;;;;4940584;28;20381;-82
2021/08/04 01:10:44;;;;;;;;;;;;;;;;;;4937225;29;20368;-83
2021/08/04 01:13:11;;;;;;;5.57;2.40;;;;;;;;;;4937058;29;20013;-84
2021/08/04 01:15:49;;;;;;;4.82;2.05;;;;;;;;;;4942285;29;20639;-84
2021/08/04 01:18:19;;;;;;;4.45;2.42;;;;;;;;;;4941040;29;20389;-84
2021/08/04 01:20:45;;;;;;;5.13;2.47;;;;;;;;;;4945848;29;20376;-83
2021/08/04 01:23:14;;;;;;;3.80;2.25;;;;;;;;;;4940155;29;20038;-83
2021/08/04 01:25:43;;;;;;;3.33;2.08;;;;;;;;;;4939163;29;20118;-83
2021/08/04 01:28:18;;;;;;;5.30;2.28;;;;;;;;;;4940549;29;20454;-83
2021/08/04 01:30:45;;;;;;;5.03;2.10;;;;;;;;;;4940828;29;20027;-83
2021/08/04 01:33:12;;;;;;;3.38;2.00;;;;;;;;;;4938628;29;20329;-83
2021/08/04 01:35:37;;;;;;;7.00;2.50;;;;;;;;;;4936091;29;20414;-83
2021/08/04 01:38:03;;;;;;;4.30;2.45;;;;;;;;;;4937715;29;20056;-83
2021/08/04 01:40:29;;;;;;;4.00;2.40;;;;;;;;;;4939991;29;20496;-83
2021/08/04 01:42:54;;;;;;;5.53;2.05;;;;;;;;;;4937550;28;20047;-83
2021/08/04 01:45:20;;;;;;;5.95;2.55;;;;;;;;;;4941728;28;20114;-83
2021/08/04 01:47:48;;;;;;;4.15;2.38;;;;;;;;;;4941565;29;20047;-83
2021/08/04 01:50:13;;;;;;;6.05;2.25;;;;;;;;;;4941069;29;20385;-83
2021/08/04 01:52:39;;;;;;;3.67;2.20;;;;;;;;;;4936862;29;20042;-83
2021/08/04 01:55:04;;;;;;;5.63;2.13;;;;;;;;;;4942081;29;20513;-83
2021/08/04 01:57:30;;;;;;;3.67;2.22;;;;;;;;;;4939895;29;20024;-83
2021/08/04 01:59:55;;;;;;;5.00;2.60;;;;;;;;;;4944651;29;20023;-83
2021/08/04 02:02:21;;;;;;;3.65;2.33;;;;;;;;;;4935968;29;20034;-83
2021/08/04 02:04:47;;;;;;;2.75;1.90;;;;;;;;;;4934395;29;20456;-83
2021/08/04 02:07:18;;;;;;;4.70;2.17;;;;;;;;;;4939079;29;20063;-83
2021/08/04 02:09:52;;;;;;;3.47;2.35;;;;;;;;;;4937231;29;20385;-83
2021/08/04 02:12:17;;;;;;;4.35;2.10;;;;;;;;;;4941707;29;20427;-83
2021/08/04 02:14:43;;;;;;;4.25;2.50;;;;;;;;;;4934722;29;20027;-83
2021/08/04 02:17:13;;;;;;;6.10;2.27;;;;;;;;;;4937019;29;20118;-83
2021/08/04 02:19:42;;;;;;;3.30;2.40;;;;;;;;;;4938754;29;20618;-83
2021/08/04 02:22:26;;;;;;;4.60;2.00;;;;;;;;;;4938758;29;20375;-83
2021/08/04 02:24:55;;;;;;;6.50;2.20;;;;;;;;;;4939724;29;20355;-84
2021/08/04 02:27:21;;;;;;;3.97;2.22;;;;;;;;;;4934777;29;20438;-83
2021/08/04 02:29:48;;;;;;;3.97;1.83;;;;;;;;;;4942099;28;20036;-83
2021/08/04 02:32:13;;;;;;;4.45;2.30;;;;;;;;;;4932706;29;20046;-83
2021/08/04 02:34:39;;;;;;;3.70;2.10;;;;;;;;;;4940433;29;20019;-84
2021/08/04 02:37:04;;;;;;;2.72;2.20;;;;;;;;;;4937372;29;20030;-84
2021/08/04 02:39:30;;;;;;;4.97;2.08;;;;;;;;;;4939354;29;20023;-83
2021/08/04 02:41:55;;;;;;;4.90;2.40;;;;;;;;;;4934356;29;20052;-83
2021/08/04 02:44:21;;;;;;;4.50;2.20;;;;;;;;;;4934171;29;20028;-83
2021/08/04 02:46:46;;;;;;;8.77;2.38;;;;;;;;;;4940601;29;20020;-83
2021/08/04 02:49:13;;;;;;;4.05;2.22;;;;;;;;;;4938267;29;20035;-83
2021/08/04 02:51:40;;;;;;;2.92;2.03;;;;;;;;;;4933161;28;20422;-83
2021/08/04 02:54:06;;;;;;;4.43;2.38;;;;;;;;;;4946984;29;20367;-83
2021/08/04 02:56:32;;;;;;;2.92;2.03;;;;;;;;;;4937517;28;20050;-83
2021/08/04 02:58:57;;;;;;;4.47;2.30;;;;;;;;;;4942339;29;20019;-82
2021/08/04 03:01:22;;;;;;;3.38;1.92;;;;;;;;;;4942398;28;20388;-83
2021/08/04 03:03:48;;;;;;;7.13;2.42;;;;;;;;;;4934836;29;20082;-83
2021/08/04 03:06:13;;;;;;;5.10;2.40;;;;;;;;;;4933269;29;20028;-83
2021/08/04 03:08:38;;;;;;;3.20;2.30;;;;;;;;;;4935180;29;20259;-83
2021/08/04 03:11:04;;;;;;;4.03;2.28;;;;;;;;;;4938234;29;20370;-83
2021/08/04 03:13:29;;;;;;;3.50;2.10;;;;;;;;;;4932745;29;20063;-83
2021/08/04 03:15:55;;;;;;;3.22;2.17;;;;;;;;;;4937433;29;20039;-84
2021/08/04 03:18:20;;;;;;;3.60;2.45;;;;;;;;;;4939824;28;20028;-83
2021/08/04 03:20:45;;;;;;;3.23;2.30;;;;;;;;;;4938335;29;20023;-84
2021/08/04 03:23:11;;;;;;;4.85;2.25;;;;;;;;;;4932565;29;20031;-83
2021/08/04 03:25:36;;;;;;;4.20;1.92;;;;;;;;;;4941810;29;20074;-84
2021/08/04 03:28:01;;;;;;;4.03;2.03;;;;;;;;;;4935090;29;20102;-83
2021/08/04 03:30:27;;;;;;;5.32;2.65;;;;;;;;;;4938510;29;20305;-83
2021/08/04 03:32:52;;;;;;;4.43;2.27;;;;;;;;;;4941742;29;20015;-82
2021/08/04 03:35:17;;;;;;;3.33;2.30;;;;;;;;;;4932438;29;20266;-83
2021/08/04 03:37:43;;;;;;;2.67;2.13;;;;;;;;;;4936384;29;20264;-83
2021/08/04 03:40:09;;;;;;;5.97;2.33;;;;;;;;;;4932149;29;20024;-82
2021/08/04 03:42:34;;;;;;;3.38;2.35;;;;;;;;;;4942447;29;20478;-83
2021/08/04 03:45:00;;;;;;;5.63;2.30;;;;;;;;;;4939461;29;20552;-84
2021/08/04 03:47:25;;;;;;;4.50;2.45;;;;;;;;;;4939367;28;20490;-83
2021/08/04 03:49:50;;;;;;;3.67;2.15;;;;;;;;;;4939123;29;20024;-83
2021/08/04 03:52:16;;;;;;;7.25;2.70;;;;;;;;;;4938548;29;20486;-84
2021/08/04 03:54:41;;;;;;;6.80;2.70;;;;;;;;;;4933457;29;20482;-82
2021/08/04 03:57:06;;;;;;;6.53;2.40;;;;;;;;;;4941028;29;20256;-83
2021/08/04 03:59:31;;;;;;;5.23;2.30;;;;;;;;;;4942351;29;20281;-83
2021/08/04 04:01:57;;;;;;;3.55;2.40;;;;;;;;;;4933117;29;20354;-83
2021/08/04 04:04:22;;;;;;;5.70;2.17;;;;;;;;;;4940569;29;20505;-82
2021/08/04 04:06:47;;;;;;;3.23;2.70;;;;;;;;;;4937086;29;20023;-82
2021/08/04 04:09:12;;;;;;;3.58;2.55;;;;;;;;;;4947777;28;21312;-83
2021/08/04 04:11:38;;;;;;;5.30;2.60;;;;;;;;;;4941276;29;20027;-83
2021/08/04 04:14:03;;;;;;;5.72;2.70;;;;;;;;;;4937789;28;20036;-83
2021/08/04 04:16:28;;;;;;;6.38;2.72;;;;;;;;;;4931784;29;20079;-84
2021/08/04 04:18:54;;;;;;;2.20;2.00;;;;;;;;;;4934678;29;20180;-83
2021/08/04 04:21:19;;;;;;;7.13;2.10;;;;;;;;;;4943461;28;20110;-83
2021/08/04 04:23:44;;;;;;;3.58;2.22;;;;;;;;;;4934972;28;20055;-83
2021/08/04 04:26:10;;;;;;;5.27;2.10;;;;;;;;;;4940210;29;20024;-83
2021/08/04 04:28:35;;;;;;;3.83;2.17;;;;;;;;;;4935345;28;20263;-83
2021/08/04 04:31:01;;;;;;;6.57;2.85;;;;;;;;;;4938277;28;20099;-83
2021/08/04 04:33:26;;;;;;;2.55;2.08;;;;;;;;;;4938691;29;20024;-83
2021/08/04 04:35:51;;;;;;;10.13;2.60;;;;;;;;;;4932256;29;20020;-83
2021/08/04 04:38:17;;;;;;;3.00;2.13;;;;;;;;;;4934259;29;20517;-83
2021/08/04 04:40:42;;;;;;;5.57;3.05;;;;;;;;;;4946187;29;20717;-83
2021/08/04 04:43:07;;;;;;;4.73;2.33;;;;;;;;;;4937921;29;20141;-82
2021/08/04 04:45:33;;;;;;;6.27;2.43;;;;;;;;;;4936767;29;20271;-84
2021/08/04 04:47:58;;;;;;;8.98;3.28;;;;;;;;;;4933044;28;20272;-83
2021/08/04 04:50:23;;;;;;;6.90;3.10;;;;;;;;;;4933996;29;20022;-82
2021/08/04 04:52:49;;;;;;;6.47;2.63;;;;;;;;;;4937078;29;20034;-83
2021/08/04 04:55:14;;;;;;;4.43;2.13;;;;;;;;;;4939149;29;20130;-82
2021/08/04 04:57:40;;;;;;;3.80;2.50;;;;;;;;;;4937080;29;20582;-83
2021/08/04 05:00:06;;;;;;;4.28;2.67;;;;;;;;;;4937883;29;20463;-83
2021/08/04 05:02:31;;;;;;;4.43;2.53;;;;;;;;;;4933161;29;20378;-83
2021/08/04 05:04:58;;;;;;;4.63;2.78;;;;;;;;;;4941610;29;20031;-82
2021/08/04 05:07:24;;;;;;;8.30;2.15;;;;;;;;;;4945568;28;20039;-83
2021/08/04 05:09:49;;;;;;;3.80;2.30;;;;;;;;;;4943588;29;20027;-83
2021/08/04 05:12:14;;;;;;;5.27;2.93;;;;;;;;;;4943869;29;20118;-83
2021/08/04 05:14:40;;;;;;;5.70;2.67;;;;;;;;;;4945253;29;20267;-84
2021/08/04 05:17:06;;;;;;;4.70;2.67;;;;;;;;;;4945855;29;20270;-84
2021/08/04 05:19:31;;;;;;;6.95;2.60;;;;;;;;;;4935950;28;20023;-84
2021/08/04 05:21:56;;;;;;;5.67;2.90;;;;;;;;;;4935262;29;20067;-82
2021/08/04 05:24:22;;;;;;;4.15;2.40;;;;;;;;;;4936049;29;20279;-81
2021/08/04 05:26:47;;;;;;;6.67;2.97;;;;;;;;;;4936090;29;20024;-81
2021/08/04 05:29:12;;;;;;;6.85;3.03;;;;;;;;;;4935792;29;20052;-82
2021/08/04 05:31:37;;;;;;;3.40;2.63;;;;;;;;;;4940288;29;20052;-81
2021/08/04 05:34:03;;;;;;;5.93;2.63;;;;;;;;;;4938703;29;20322;-82
2021/08/04 05:36:28;;;;;;;5.63;2.53;;;;;;;;;;4936494;29;20024;-83
2021/08/04 05:38:54;;;;;;;7.93;2.83;;;;;;;;;;4943940;29;20358;-83
2021/08/04 05:41:20;;;;;;;6.22;2.80;;;;;;;;;;4940876;29;20374;-86
2021/08/04 05:43:45;;;;;;;17.58;11.10;;;;;;;;;;4945080;29;20016;-82
2021/08/04 05:46:10;;;;;;;31.50;24.83;;;;;;;;;;4937442;28;20016;-82
2021/08/04 05:48:36;;;;;;;11.57;6.38;;;;;;;;;;4943183;29;20007;-82
2021/08/04 05:51:01;;;;;;;7.87;3.93;;;;;;;;;;4941975;29;20597;-83
2021/08/04 05:53:26;;;;;;;4.60;3.00;;;;;;;;;;4925199;29;20366;-83
2021/08/04 05:55:51;;;;;;;5.93;3.03;;;;;;;;;;4926560;29;20440;-84
2021/08/04 05:58:17;;;;;;;7.83;3.13;;;;;;;;;;4934870;29;20106;-83
2021/08/04 06:00:42;;;;;;;4.32;2.97;;;;;;;;;;4934637;29;20277;-84
2021/08/04 06:03:07;;;;;;;6.80;3.88;;;;;;;;;;4934295;29;20034;-83
2021/08/04 06:05:33;;;;;;;9.23;3.40;;;;;;;;;;4939236;29;20042;-83
2021/08/04 06:07:58;;;;;;;9.60;3.40;;;;;;;;;;4934295;29;20032;-84
2021/08/04 06:10:23;;;;;;;6.32;3.13;;;;;;;;;;4936695;29;20279;-82
2021/08/04 06:12:49;;;;;;;5.55;2.60;;;;;;;;;;4938316;29;20026;-83
2021/08/04 06:15:14;;;;;;;4.80;2.60;;;;;;;;;;4933995;29;20022;-82
2021/08/04 06:17:39;;;;;;;7.22;2.80;;;;;;;;;;4936444;29;20027;-81
2021/08/04 06:20:05;;;;;;;6.90;2.78;;;;;;;;;;4935140;29;20058;-82
2021/08/04 06:22:30;;;;;;;3.72;2.30;;;;;;;;;;4939084;28;20078;-82
2021/08/04 06:24:55;;;;;;;7.40;2.90;;;;;;;;;;4935879;29;20023;-83
2021/08/04 06:27:21;;;;;;;5.93;2.97;;;;;;;;;;4935883;28;20627;-82
2021/08/04 06:29:46;;;;;;;9.77;2.78;;;;;;;;;;4933625;29;20505;-82
2021/08/04 06:32:12;;;;;;;3.78;2.03;;;;;;;;;;4935323;28;20023;-83
2021/08/04 06:34:37;;;;;;;6.63;3.17;;;;;;;;;;4936946;29;20024;-83
2021/08/04 06:37:03;;;;;;;3.63;2.03;;;;;;;;;;4935752;29;21186;-82
2021/08/04 06:39:28;;;;;;;4.43;2.25;;;;;;;;;;4939435;29;20024;-82
2021/08/04 06:41:53;;;;;;;5.15;2.53;;;;;;;;;;4940236;29;20082;-84
2021/08/04 06:44:19;;;;;;;4.47;2.40;;;;;;;;;;4933930;29;20031;-82
2021/08/04 06:46:44;;;;;;;4.70;2.17;;;;;;;;;;4933742;29;20263;-83
2021/08/04 06:49:10;;;;;;;2.70;2.25;;;;;;;;;;4933920;29;20036;-83
2021/08/04 06:51:35;;;;;;;6.30;2.23;;;;;;;;;;4934662;29;20107;-82
2021/08/04 06:54:01;;;;;;;5.68;2.50;;;;;;;;;;4934554;29;20107;-83
2021/08/04 06:56:26;;;;;;;2.83;2.05;;;;;;;;;;4934569;29;20055;-83
2021/08/04 06:58:52;;;;;;;5.07;2.73;;;;;;;;;;4937027;29;20030;-82
2021/08/04 07:01:17;;;;;;;4.32;2.67;;;;;;;;;;4940337;28;20259;-81
2021/08/04 07:03:42;;;;;;;2.93;2.20;;;;;;;;;;4939209;29;20020;-83
2021/08/04 07:06:09;;;;;;;4.53;2.45;;;;;;;;;;4945095;28;20279;-82
2021/08/04 07:08:35;;;;;;;4.85;2.90;;;;;;;;;;4943379;29;20356;-82
2021/08/04 07:11:01;;;;;;;3.50;2.00;;;;;;;;;;4934171;29;20430;-81
2021/08/04 07:13:26;;;;;;;5.85;2.70;;;;;;;;;;4938065;29;20024;-83
2021/08/04 07:15:51;;;;;;;4.23;2.00;;;;;;;;;;4934802;29;20506;-82
2021/08/04 07:18:16;;;;;;;5.45;2.35;;;;;;;;;;4934952;28;20016;-83
2021/08/04 07:20:42;;;;;;;3.70;2.42;;;;;;;;;;4934375;29;20047;-83
2021/08/04 07:23:07;;;;;;;7.40;2.10;;;;;;;;;;4938377;29;20031;-84
2021/08/04 07:25:32;;;;;;;3.67;2.50;;;;;;;;;;4936906;29;20283;-83
2021/08/04 07:27:57;;;;;;;5.60;2.80;;;;;;;;;;4938093;29;20259;-83
2021/08/04 07:30:24;;;;;;;3.78;2.03;;;;;;;;;;4939026;28;20035;-83
2021/08/04 07:32:50;;;;;;;4.60;2.42;;;;;;;;;;4938980;28;20031;-83
2021/08/04 07:35:15;;;;;;;6.28;2.15;;;;;;;;;;4932681;29;20015;-83
2021/08/04 07:37:40;;;;;;;3.97;2.20;;;;;;;;;;4935698;29;20047;-83
2021/08/04 07:40:07;;;;;;;4.70;2.23;;;;;;;;;;4939273;29;20113;-83
2021/08/04 07:42:33;;;;;;;5.45;2.10;;;;;;;;;;4939673;28;20700;-83
2021/08/04 07:44:58;;;;;;;3.33;2.03;;;;;;;;;;4942454;29;20115;-82
2021/08/04 07:47:23;;;;;;;2.50;2.00;;;;;;;;;;4937402;29;20071;-82
2021/08/04 07:49:49;;;;;;;2.65;1.98;;;;;;;;;;4933372;29;20027;-83
2021/08/04 07:52:14;;;;;;;4.57;2.60;;;;;;;;;;4932367;29;20032;-83
2021/08/04 07:54:39;;;;;;;2.80;1.77;;;;;;;;;;4940011;29;20178;-83
2021/08/04 07:57:05;;;;;;;3.17;2.40;;;;;;;;;;4944759;29;20027;-81
2021/08/04 07:59:30;;;;;;;3.05;1.98;;;;;;;;;;4937185;28;20268;-82
2021/08/04 08:01:56;;;;;;;3.13;1.80;;;;;;;;;;4935584;29;20035;-83
2021/08/04 08:04:21;;;;;;;4.15;2.10;;;;;;;;;;4940915;29;20058;-83
2021/08/04 08:06:47;;;;;;;2.92;2.20;;;;;;;;;;4944039;29;20023;-82
2021/08/04 08:09:13;;;;;;;3.00;1.88;;;;;;;;;;4937351;29;20031;-82
2021/08/04 08:11:39;;;;;;;2.78;2.17;;;;;;;;;;4935775;29;20027;-84
2021/08/04 08:14:04;;;;;;;2.55;2.00;;;;;;;;;;4932750;29;20107;-82
2021/08/04 08:16:29;;;;;;;4.10;2.20;;;;;;;;;;4933150;29;20052;-83
2021/08/04 08:18:55;;;;;;;3.95;2.08;;;;;;;;;;4932834;29;20020;-82
2021/08/04 08:21:23;;;;;;;7.75;3.25;;;;;;;;;;4935877;29;20020;-82
2021/08/04 08:23:48;;;;;;;4.03;2.45;;;;;;;;;;4933124;29;20107;-82
2021/08/04 08:26:14;;;;;;;2.22;1.80;;;;;;;;;;4942108;28;20111;-81
2021/08/04 08:28:39;;;;;;;4.30;2.40;;;;;;;;;;4933186;29;20031;-86
2021/08/04 08:31:04;;;;;;;7.23;2.60;;;;;;;;;;4933741;29;20020;-85
2021/08/04 08:33:39;;;;;;;4.60;2.60;;;;;;;;;;4937520;29;20272;-85
2021/08/04 08:36:04;;;;;;;5.07;3.03;;;;;;;;;;4933656;29;20020;-84
2021/08/04 08:38:30;;;;;;;4.07;2.50;;;;;;;;;;4934657;29;20019;-84
2021/08/04 08:40:55;;;;;;;6.97;2.45;;;;;;;;;;4934572;28;20513;-84
2021/08/04 08:43:20;;;;;;;6.93;2.50;;;;;;;;;;4939231;28;20027;-84
2021/08/04 08:45:49;;;;;;;3.90;2.28;;;;;;;;;;4937596;28;20027;-84
2021/08/04 08:48:15;;;;;;;4.20;2.43;;;;;;;;;;4929683;29;20387;-84
2021/08/04 08:50:42;;;;;;;3.60;2.20;;;;;;;;;;4935646;29;20041;-83
2021/08/04 08:53:07;;;;;;;5.13;2.38;;;;;;;;;;4935470;29;20030;-85
2021/08/04 08:55:32;;;;;;;2.78;1.92;;;;;;;;;;4938663;28;20048;-84
2021/08/04 08:57:58;;;;;;;3.55;1.98;;;;;;;;;;4943714;29;20032;-80
2021/08/04 09:00:23;;;;;;;14.10;6.57;;;;;;;;;;4935120;28;20035;-83
2021/08/04 09:02:49;;;;;;;7.65;3.83;;;;;;;;;;4937435;29;20016;-83
2021/08/04 09:05:16;;;;;;;4.70;2.83;;;;;;;;;;4935339;29;20032;-83
2021/08/04 09:07:43;;;;;;;4.15;2.08;;;;;;;;;;4944587;29;20666;-84
2021/08/04 09:10:25;;;;;;;5.25;2.45;;;;;;;;;;4933935;29;20446;-85
2021/08/04 09:12:55;;;;;;;2.70;2.10;;;;;;;;;;4930137;29;20461;-83
2021/08/04 09:15:46;;;;;;;6.43;2.78;;;;;;;;;;4937897;29;20847;-84
2021/08/04 09:18:13;;;;;;;5.38;2.13;;;;;;;;;;4939200;29;20627;-85
2021/08/04 09:20:44;;;;;;;4.53;2.58;;;;;;;;;;4948854;29;20537;-84
2021/08/04 09:23:11;;;;;;;3.45;2.17;;;;;;;;;;4945615;28;20641;-85
2021/08/04 09:25:36;;;;;;;4.95;2.22;;;;;;;;;;4946231;29;20390;-84
2021/08/04 09:28:01;;;;;;;3.23;1.93;;;;;;;;;;4942977;29;20031;-83
2021/08/04 09:30:29;;;;;;;3.13;2.20;;;;;;;;;;4937367;29;20032;-81
2021/08/04 09:33:11;;;;;;;3.28;2.53;;;;;;;;;;4934478;29;20032;-83
2021/08/04 09:35:41;;;;;;;2.20;1.60;;;;;;;;;;4934607;29;20390;-82
2021/08/04 09:38:06;;;;;;;;;;;;;;;;;;4931335;29;20402;-83
2021/08/04 09:40:32;;;;;;;2.35;1.83;;;;;;;;;;4935746;29;19917;-83
2021/08/04 09:42:57;;;;;;;4.45;2.17;;;;;;;;;;4935655;29;20111;-84
2021/08/04 09:45:27;;;;;;;5.47;2.30;;;;;;;;;;4940468;29;20063;-83
2021/08/04 09:47:56;;;;;;;2.50;2.15;;;;;;;;;;4936996;29;20024;-83
2021/08/04 09:50:21;;;;;;;3.00;2.30;;;;;;;;;;4929781;29;20031;-83
2021/08/04 09:52:56;;;;;;;4.45;2.20;;;;;;;;;;4939366;29;20019;-83
2021/08/04 09:55:22;;;;;;;2.10;1.88;;;;;;;;;;4956493;28;20379;-83
2021/08/04 09:57:50;;;;;;;3.30;2.03;;;;;;;;;;4950065;28;20363;-83
2021/08/04 10:00:16;;;;;;;6.22;2.63;;;;;;;;;;4935541;29;20054;-83
2021/08/04 10:02:44;;;;;;;4.60;2.40;;;;;;;;;;4939283;28;20374;-84
2021/08/04 10:05:24;;;;;;;5.75;2.65;;;;;;;;;;4934897;29;21758;-84
2021/08/04 10:08:12;;;;;;;6.30;2.40;;;;;;;;;;4939997;29;20446;-83
2021/08/04 10:10:38;;;;;;;3.83;2.42;;;;;;;;;;4940331;28;20035;-85
2021/08/04 10:13:05;;;;;;;4.68;2.50;;;;;;;;;;4940630;28;20386;-84
2021/08/04 10:15:33;;;;;;;2.50;2.20;;;;;;;;;;4930459;29;20119;-81
2021/08/04 10:17:59;;;;;;;4.32;2.50;;;;;;;;;;4932617;29;20111;-81
2021/08/04 10:20:24;;;;;;;4.68;2.30;;;;;;;;;;4928194;29;20453;-81
2021/08/04 10:22:49;;;;;;;4.30;2.47;;;;;;;;;;4931126;29;20136;-81
2021/08/04 10:25:15;;;;;;;5.40;2.88;;;;;;;;;;4933231;29;20662;-81
2021/08/04 10:27:40;;;;;;;3.83;2.10;;;;;;;;;;4933477;29;20035;-82
2021/08/04 10:30:07;;;;;;;5.85;2.72;;;;;;;;;;4926855;29;20028;-81
2021/08/04 10:32:33;;;;;;;5.05;2.92;;;;;;;;;;4927611;29;20387;-82
2021/08/04 10:34:58;;;;;;;4.10;2.58;;;;;;;;;;4933783;29;20019;-81
2021/08/04 10:37:24;;;;;;;8.07;2.85;;;;;;;;;;4935564;29;20020;-81
2021/08/04 10:39:49;;;;;;;5.13;2.78;;;;;;;;;;4939320;29;20040;-80
2021/08/04 10:42:14;;;;;;;5.10;2.50;;;;;;;;;;4929759;29;20087;-81
2021/08/04 10:44:40;;;;;;;2.88;2.08;;;;;;;;;;4929281;29;20435;-81
2021/08/04 10:47:06;;;;;;;5.53;2.67;;;;;;;;;;4931055;29;20028;-82
2021/08/04 10:49:33;;;;;;;4.32;2.83;;;;;;;;;;4932673;29;20046;-84
2021/08/04 10:52:01;;;;;;;3.53;2.20;;;;;;;;;;4936448;29;20032;-83
2021/08/04 10:54:30;;;;;;;5.85;2.88;;;;;;;;;;4933033;29;20211;-83
2021/08/04 10:56:55;;;;;;;4.43;2.50;;;;;;;;;;4920869;29;20637;-80
2021/08/04 10:59:24;;;;;;;4.43;2.43;;;;;;;;;;4935090;29;20039;-79
2021/08/04 11:01:54;;;;;;;3.97;2.38;;;;;;;;;;4934680;29;20824;-81
2021/08/04 11:04:19;;;;;;;;;;;;;;;;;;4934177;29;20445;-80
2021/08/04 11:07:03;;;;;;;5.10;2.20;;;;;;;;;;4933339;29;19910;-81
2021/08/04 11:09:32;;;;;;;5.35;2.58;;;;;;;;;;4932005;29;20805;-82
2021/08/04 11:12:00;;;;;;;4.95;2.90;;;;;;;;;;4932354;29;20116;-82
2021/08/04 11:14:38;;;;;;;4.15;2.10;;;;;;;;;;4935702;29;20035;-80
2021/08/04 11:17:04;;;;;;;2.60;2.17;;;;;;;;;;4933450;29;20024;-82
2021/08/04 11:19:34;;;;;;;3.10;1.92;;;;;;;;;;4938600;29;20077;-82
2021/08/04 11:22:13;;;;;;;3.20;2.10;;;;;;;;;;4935253;28;20016;-82
2021/08/04 11:24:39;;;;;;;;;;;;;;;;;;4934057;29;20095;-80
2021/08/04 11:27:04;;;;;;;2.97;2.13;;;;;;;;;;4941950;29;19993;-81
2021/08/04 11:29:43;;;;;;;4.90;2.83;;;;;;;;;;4933934;29;20245;-82
2021/08/04 11:32:35;;;;;;;3.77;2.40;;;;;;;;;;4930801;29;20173;-82
2021/08/04 11:35:15;;;;;;;4.50;3.00;;;;;;;;;;4930851;29;20508;-83
2021/08/04 11:37:41;;;;;;;4.68;2.80;;;;;;;;;;4932196;29;20314;-81
2021/08/04 11:40:07;;;;;;;6.47;2.53;;;;;;;;;;4937424;28;20579;-81
2021/08/04 11:42:32;;;;;;;3.78;2.22;;;;;;;;;;4934104;29;20048;-81
2021/08/04 11:45:03;;;;;;;3.67;2.20;;;;;;;;;;4932506;29;20023;-82
2021/08/04 11:47:28;;;;;;;4.00;2.38;;;;;;;;;;4934930;29;20271;-81
2021/08/04 11:49:54;;;;;;;5.28;2.22;;;;;;;;;;4937256;28;20091;-81
2021/08/04 11:52:21;;;;;;;8.37;2.40;;;;;;;;;;4940297;29;20106;-82
2021/08/04 11:54:48;;;;;;;4.10;2.67;;;;;;;;;;4934074;29;20070;-81
2021/08/04 11:57:25;;;;;;;4.07;2.30;;;;;;;;;;4935280;29;20036;-82
2021/08/04 11:59:52;;;;;;;2.97;1.92;;;;;;;;;;4940279;29;20386;-81
2021/08/04 12:02:22;;;;;;;2.67;1.80;;;;;;;;;;4930699;29;20051;-81
2021/08/04 12:04:49;;;;;;;2.78;2.00;;;;;;;;;;4933230;29;20317;-81
2021/08/04 12:07:15;;;;;;;2.13;1.60;;;;;;;;;;4933449;28;20438;-80
2021/08/04 12:09:40;;;;;;;3.83;2.38;;;;;;;;;;4926828;29;20055;-80
2021/08/04 12:12:10;;;;;;;2.72;1.80;;;;;;;;;;4927307;29;20024;-81
2021/08/04 12:14:35;;;;;;;4.13;2.35;;;;;;;;;;4932652;28;20027;-81
2021/08/04 12:17:02;;;;;;;2.60;1.90;;;;;;;;;;4933792;29;20470;-80
2021/08/04 12:19:28;;;;;;;3.30;1.63;;;;;;;;;;4932858;29;20087;-81
2021/08/04 12:21:54;;;;;;;4.70;1.80;;;;;;;;;;4932045;29;20517;-81
2021/08/04 12:24:19;;;;;;;2.30;1.70;;;;;;;;;;4942375;28;20043;-78
2021/08/04 12:26:46;;;;;;;2.10;1.55;;;;;;;;;;4938397;28;20568;-82
2021/08/04 12:29:15;;;;;;;5.35;2.40;;;;;;;;;;4932690;29;20082;-83
2021/08/04 12:31:40;;;;;;;2.83;1.90;;;;;;;;;;4934187;29;20040;-82
2021/08/04 12:34:07;;;;;;;4.13;1.70;;;;;;;;;;4936188;29;20522;-83
2021/08/04 12:36:45;;;;;;;4.57;1.70;;;;;;;;;;4939825;29;20520;-82
2021/08/04 12:39:10;;;;;;;1.95;1.67;;;;;;;;;;4939542;29;20170;-82
2021/08/04 12:41:36;;;;;;;2.33;1.80;;;;;;;;;;4935407;29;20534;-81
2021/08/04 12:44:04;;;;;;;2.03;1.80;;;;;;;;;;4942932;29;20032;-82
2021/08/04 12:46:32;;;;;;;2.92;1.73;;;;;;;;;;4936493;29;20315;-82
2021/08/04 12:48:58;;;;;;;2.30;1.33;;;;;;;;;;4944186;29;20114;-82
2021/08/04 12:51:24;;;;;;;2.80;1.60;;;;;;;;;;4934816;29;20019;-83
2021/08/04 12:54:00;;;;;;;2.60;1.80;;;;;;;;;;4936412;29;20482;-84
2021/08/04 12:56:29;;;;;;;3.15;1.92;;;;;;;;;;4943083;29;20039;-82
2021/08/04 12:58:59;;;;;;;1.90;1.48;;;;;;;;;;4949182;29;20027;-82
2021/08/04 13:01:29;;;;;;;3.05;1.80;;;;;;;;;;4938333;29;20047;-82
2021/08/04 13:03:54;;;;;;;2.65;1.70;;;;;;;;;;4942611;28;20725;-82
2021/08/04 13:06:38;;;;;;;4.75;2.30;;;;;;;;;;4937850;28;20080;-82
2021/08/04 13:09:04;;;;;;;2.65;1.52;;;;;;;;;;4935660;29;20024;-81
2021/08/04 13:11:29;;;;;;;1.83;1.70;;;;;;;;;;4933886;29;20020;-83
2021/08/04 13:14:00;;;;;;;2.92;1.80;;;;;;;;;;4937155;29;20027;-81
2021/08/04 13:16:29;;;;;;;3.65;2.03;;;;;;;;;;4931156;28;20051;-83
2021/08/04 13:18:54;;;;;;;2.38;1.90;;;;;;;;;;4934396;29;20379;-84
2021/08/04 13:21:19;;;;;;;4.32;1.90;;;;;;;;;;4943495;29;20122;-81
2021/08/04 13:23:45;;;;;;;2.70;1.60;;;;;;;;;;4947085;29;20054;-82
2021/08/04 13:26:11;;;;;;;6.83;2.20;;;;;;;;;;4946772;29;20059;-82
2021/08/04 13:28:37;;;;;;;4.10;2.38;;;;;;;;;;4938253;28;20023;-82
2021/08/04 13:31:04;;;;;;;3.58;2.15;;;;;;;;;;4936670;29;20031;-81
2021/08/04 13:33:29;;;;;;;2.40;1.80;;;;;;;;;;4934220;29;20363;-80
2021/08/04 13:36:01;;;;;;;2.75;2.05;;;;;;;;;;4936275;29;20038;-81
2021/08/04 13:38:27;;;;;;;3.42;1.67;;;;;;;;;;4931337;29;20078;-82
2021/08/04 13:40:54;;;;;;;2.70;1.92;;;;;;;;;;4935253;29;20370;-81
2021/08/04 13:43:19;;;;;;;2.53;1.92;;;;;;;;;;4939427;29;20050;-81
2021/08/04 13:45:44;;;;;;;2.47;1.85;;;;;;;;;;4941436;29;20470;-81
2021/08/04 13:48:10;;;;;;;2.22;1.45;;;;;;;;;;4942279;29;20121;-81
2021/08/04 13:50:36;;;;;;;4.32;2.50;;;;;;;;;;4939407;29;20482;-81
2021/08/04 13:53:01;;;;;;;3.40;2.28;;;;;;;;;;4938635;29;20471;-81
2021/08/04 13:55:29;;;;;;;2.85;1.95;;;;;;;;;;4934461;29;20059;-82
2021/08/04 13:57:55;;;;;;;4.35;2.10;;;;;;;;;;4936937;29;20386;-82
2021/08/04 14:00:23;;;;;;;2.73;2.00;;;;;;;;;;4938758;29;20031;-81
2021/08/04 14:02:48;;;;;;;4.05;2.50;;;;;;;;;;4935238;29;20686;-82
2021/08/04 14:05:15;;;;;;;3.08;2.08;;;;;;;;;;4937372;29;20031;-82
2021/08/04 14:07:40;;;;;;;6.35;2.42;;;;;;;;;;4933879;29;20023;-82
2021/08/04 14:10:07;;;;;;;3.60;2.30;;;;;;;;;;4944307;29;20087;-81
2021/08/04 14:12:33;;;;;;;3.33;2.05;;;;;;;;;;4936205;29;20122;-82
2021/08/04 14:14:58;;;;;;;3.75;2.88;;;;;;;;;;4941090;28;20485;-81
2021/08/04 14:17:24;;;;;;;4.72;2.53;;;;;;;;;;4941161;29;20019;-81
2021/08/04 14:19:49;;;;;;;2.30;1.83;;;;;;;;;;4946720;28;20486;-79
2021/08/04 14:22:15;;;;;;;6.13;2.55;;;;;;;;;;4930815;28;20027;-80
2021/08/04 14:24:43;;;;;;;3.38;2.08;;;;;;;;;;4935122;29;20034;-81
2021/08/04 14:27:08;;;;;;;5.15;2.40;;;;;;;;;;4934910;29;20402;-80
2021/08/04 14:29:33;;;;;;;3.08;2.10;;;;;;;;;;4940358;29;20035;-80
2021/08/04 14:31:59;;;;;;;6.70;2.70;;;;;;;;;;4933601;28;20366;-79
2021/08/04 14:34:24;;;;;;;7.90;2.67;;;;;;;;;;4935146;29;20028;-80
2021/08/04 14:36:49;;;;;;;4.72;2.63;;;;;;;;;;4935724;29;20039;-80
2021/08/04 14:39:15;;;;;;;6.47;2.78;;;;;;;;;;4937643;29;20051;-80
2021/08/04 14:41:40;;;;;;;4.10;2.40;;;;;;;;;;4944935;29;20085;-81